Impacts METAR Board INFO
IDs:

KCLT - Charlotte/Douglas In, NC, US

Updated at: 1515 UTC 21 Feb 2018
Potential Impact None Slight Moderate High
Time21/03Z 21/04Z 21/05Z 21/06Z 21/07Z 21/08Z 21/09Z 21/10Z 21/11Z 21/12Z 21/13Z 21/14Z 21/15Z
VIS 10 10 10
CIG 20 19 17
CoverBKNOVCOVC
FltCatMVFRMVFRMVFR
WX------
WDir180170210
WSpd 6 7 7
WGst -- -- --
Raw hourly METARs










KCLT 211252Z 18006KT 10SM SCT008 BKN020 BKN035 19/18 A3045 RMK AO2 SLP307 T01890183
KCLT 211352Z 17007KT 10SM SCT008 BKN019 OVC027 20/19 A3046 RMK AO2 SLP309 T02000189
KCLT 211452Z 21007KT 10SM FEW012 BKN017 OVC075 21/18 A3046 RMK AO2 SLP310 T02060183 51007